sensor_id;sensor_type;location;lat;lon;timestamp;P1;durP1;ratioP1;P2;durP2;ratioP2
62268;SDS011;56517;51.634;5.566;2022-10-16T00:02:39;13.13;;;7.18;;
62268;SDS011;56517;51.634;5.566;2022-10-16T00:07:39;12.18;;;6.82;;
62268;SDS011;56517;51.634;5.566;2022-10-16T00:12:40;9.35;;;7.13;;
62268;SDS011;56517;51.634;5.566;2022-10-16T00:17:42;15.30;;;7.97;;
62268;SDS011;56517;51.634;5.566;2022-10-16T00:22:42;8.77;;;6.20;;
62268;SDS011;56517;51.634;5.566;2022-10-16T00:27:43;11.10;;;7.28;;
62268;SDS011;56517;51.634;5.566;2022-10-16T00:32:45;9.15;;;6.70;;
62268;SDS011;56517;51.634;5.566;2022-10-16T00:37:45;7.88;;;6.28;;
62268;SDS011;56517;51.634;5.566;2022-10-16T00:42:46;9.68;;;6.68;;
62268;SDS011;56517;51.634;5.566;2022-10-16T00:47:48;8.65;;;6.10;;
62268;SDS011;56517;51.634;5.566;2022-10-16T00:52:49;9.60;;;6.43;;
62268;SDS011;56517;51.634;5.566;2022-10-16T00:57:51;9.32;;;6.13;;
62268;SDS011;56517;51.634;5.566;2022-10-16T01:02:54;9.40;;;6.90;;
62268;SDS011;56517;51.634;5.566;2022-10-16T01:07:56;8.75;;;6.65;;
62268;SDS011;56517;51.634;5.566;2022-10-16T01:12:58;11.32;;;6.22;;
62268;SDS011;56517;51.634;5.566;2022-10-16T01:18:01;7.15;;;6.35;;
62268;SDS011;56517;51.634;5.566;2022-10-16T01:23:06;11.38;;;7.07;;
62268;SDS011;56517;51.634;5.566;2022-10-16T01:28:10;10.43;;;6.70;;
62268;SDS011;56517;51.634;5.566;2022-10-16T01:33:13;12.90;;;7.22;;
62268;SDS011;56517;51.634;5.566;2022-10-16T01:38:16;9.00;;;6.68;;
62268;SDS011;56517;51.634;5.566;2022-10-16T01:43:20;9.77;;;6.97;;
62268;SDS011;56517;51.634;5.566;2022-10-16T01:48:21;9.90;;;6.32;;
62268;SDS011;56517;51.634;5.566;2022-10-16T01:53:23;8.43;;;6.80;;
62268;SDS011;56517;51.634;5.566;2022-10-16T01:58:26;9.60;;;6.80;;
62268;SDS011;56517;51.634;5.566;2022-10-16T02:03:27;7.32;;;5.80;;
62268;SDS011;56517;51.634;5.566;2022-10-16T02:08:28;9.10;;;6.72;;
62268;SDS011;56517;51.634;5.566;2022-10-16T02:13:33;13.07;;;6.82;;
62268;SDS011;56517;51.634;5.566;2022-10-16T02:18:34;9.55;;;6.43;;
62268;SDS011;56517;51.634;5.566;2022-10-16T02:23:36;12.05;;;6.20;;
62268;SDS011;56517;51.634;5.566;2022-10-16T02:28:40;7.75;;;6.28;;
62268;SDS011;56517;51.634;5.566;2022-10-16T02:33:41;7.60;;;5.88;;
62268;SDS011;56517;51.634;5.566;2022-10-16T02:38:42;6.72;;;5.70;;
62268;SDS011;56517;51.634;5.566;2022-10-16T02:43:44;6.68;;;5.88;;
62268;SDS011;56517;51.634;5.566;2022-10-16T02:48:44;9.73;;;5.72;;
62268;SDS011;56517;51.634;5.566;2022-10-16T02:53:45;10.20;;;5.82;;
62268;SDS011;56517;51.634;5.566;2022-10-16T02:58:47;10.63;;;6.18;;
62268;SDS011;56517;51.634;5.566;2022-10-16T03:03:47;9.15;;;5.88;;
62268;SDS011;56517;51.634;5.566;2022-10-16T03:08:48;8.40;;;6.00;;
62268;SDS011;56517;51.634;5.566;2022-10-16T03:13:50;8.77;;;5.80;;
62268;SDS011;56517;51.634;5.566;2022-10-16T03:18:51;7.15;;;5.68;;
62268;SDS011;56517;51.634;5.566;2022-10-16T03:23:51;5.95;;;5.45;;
62268;SDS011;56517;51.634;5.566;2022-10-16T03:28:53;7.18;;;6.20;;
62268;SDS011;56517;51.634;5.566;2022-10-16T03:33:54;7.60;;;6.20;;
62268;SDS011;56517;51.634;5.566;2022-10-16T03:38:54;6.68;;;5.50;;
62268;SDS011;56517;51.634;5.566;2022-10-16T03:43:56;8.30;;;5.75;;
62268;SDS011;56517;51.634;5.566;2022-10-16T03:48:57;9.20;;;6.13;;
62268;SDS011;56517;51.634;5.566;2022-10-16T03:53:57;9.70;;;6.55;;
62268;SDS011;56517;51.634;5.566;2022-10-16T03:58:59;9.63;;;6.10;;
62268;SDS011;56517;51.634;5.566;2022-10-16T04:04:00;11.00;;;6.00;;
62268;SDS011;56517;51.634;5.566;2022-10-16T04:09:00;8.23;;;5.90;;
62268;SDS011;56517;51.634;5.566;2022-10-16T04:14:02;9.10;;;5.50;;
62268;SDS011;56517;51.634;5.566;2022-10-16T04:19:03;7.93;;;6.75;;
62268;SDS011;56517;51.634;5.566;2022-10-16T04:24:03;8.38;;;6.00;;
62268;SDS011;56517;51.634;5.566;2022-10-16T04:29:05;6.05;;;5.45;;
62268;SDS011;56517;51.634;5.566;2022-10-16T04:34:06;7.47;;;5.05;;
62268;SDS011;56517;51.634;5.566;2022-10-16T04:39:07;8.90;;;6.35;;
62268;SDS011;56517;51.634;5.566;2022-10-16T04:44:08;7.35;;;6.65;;
62268;SDS011;56517;51.634;5.566;2022-10-16T04:49:09;6.57;;;5.15;;
62268;SDS011;56517;51.634;5.566;2022-10-16T04:54:10;10.43;;;7.53;;
62268;SDS011;56517;51.634;5.566;2022-10-16T04:59:12;9.57;;;6.05;;
62268;SDS011;56517;51.634;5.566;2022-10-16T05:04:12;6.50;;;5.18;;
62268;SDS011;56517;51.634;5.566;2022-10-16T05:09:13;9.15;;;5.65;;
62268;SDS011;56517;51.634;5.566;2022-10-16T05:14:15;8.02;;;5.63;;
62268;SDS011;56517;51.634;5.566;2022-10-16T05:19:15;7.20;;;5.80;;
62268;SDS011;56517;51.634;5.566;2022-10-16T05:24:16;11.18;;;5.68;;
62268;SDS011;56517;51.634;5.566;2022-10-16T05:29:18;7.80;;;5.32;;
62268;SDS011;56517;51.634;5.566;2022-10-16T05:34:19;6.20;;;5.57;;
62268;SDS011;56517;51.634;5.566;2022-10-16T05:39:19;7.47;;;5.97;;
62268;SDS011;56517;51.634;5.566;2022-10-16T05:44:21;7.95;;;6.13;;
62268;SDS011;56517;51.634;5.566;2022-10-16T05:49:22;8.35;;;6.07;;
62268;SDS011;56517;51.634;5.566;2022-10-16T05:54:22;11.07;;;6.68;;
62268;SDS011;56517;51.634;5.566;2022-10-16T05:59:24;8.43;;;5.50;;
62268;SDS011;56517;51.634;5.566;2022-10-16T06:04:25;10.88;;;6.60;;
62268;SDS011;56517;51.634;5.566;2022-10-16T06:09:25;10.13;;;6.47;;
62268;SDS011;56517;51.634;5.566;2022-10-16T06:14:27;9.20;;;6.25;;
62268;SDS011;56517;51.634;5.566;2022-10-16T06:19:28;11.13;;;6.22;;
62268;SDS011;56517;51.634;5.566;2022-10-16T06:24:29;11.10;;;7.20;;
62268;SDS011;56517;51.634;5.566;2022-10-16T06:29:30;10.02;;;6.55;;
62268;SDS011;56517;51.634;5.566;2022-10-16T06:34:31;11.98;;;6.80;;
62268;SDS011;56517;51.634;5.566;2022-10-16T06:39:32;10.32;;;6.32;;
62268;SDS011;56517;51.634;5.566;2022-10-16T06:44:33;12.88;;;7.03;;
62268;SDS011;56517;51.634;5.566;2022-10-16T06:49:34;9.98;;;6.32;;
62268;SDS011;56517;51.634;5.566;2022-10-16T06:54:35;8.98;;;6.15;;
62268;SDS011;56517;51.634;5.566;2022-10-16T06:59:36;11.27;;;7.47;;
62268;SDS011;56517;51.634;5.566;2022-10-16T07:04:37;11.60;;;6.80;;
62268;SDS011;56517;51.634;5.566;2022-10-16T07:09:38;8.20;;;6.50;;
62268;SDS011;56517;51.634;5.566;2022-10-16T07:14:39;12.27;;;7.00;;
62268;SDS011;56517;51.634;5.566;2022-10-16T07:19:40;14.00;;;6.97;;
62268;SDS011;56517;51.634;5.566;2022-10-16T07:24:41;8.27;;;6.00;;
62268;SDS011;56517;51.634;5.566;2022-10-16T07:29:42;10.50;;;6.93;;
62268;SDS011;56517;51.634;5.566;2022-10-16T07:45:33;12.75;;;5.90;;
62268;SDS011;56517;51.634;5.566;2022-10-16T07:50:56;8.95;;;4.80;;
62268;SDS011;56517;51.634;5.566;2022-10-16T07:55:59;9.35;;;4.63;;
62268;SDS011;56517;51.634;5.566;2022-10-16T08:06:36;8.25;;;3.60;;
62268;SDS011;56517;51.634;5.566;2022-10-16T08:11:42;11.10;;;4.05;;
62268;SDS011;56517;51.634;5.566;2022-10-16T08:16:53;11.88;;;4.20;;
62268;SDS011;56517;51.634;5.566;2022-10-16T08:22:13;8.23;;;3.67;;
62268;SDS011;56517;51.634;5.566;2022-10-16T08:27:24;7.18;;;3.60;;
62268;SDS011;56517;51.634;5.566;2022-10-16T08:32:35;7.35;;;3.72;;
62268;SDS011;56517;51.634;5.566;2022-10-16T08:37:47;7.75;;;3.97;;
62268;SDS011;56517;51.634;5.566;2022-10-16T08:43:00;10.55;;;4.05;;
62268;SDS011;56517;51.634;5.566;2022-10-16T08:48:11;9.95;;;3.90;;
62268;SDS011;56517;51.634;5.566;2022-10-16T08:53:28;9.27;;;3.65;;
62268;SDS011;56517;51.634;5.566;2022-10-16T08:58:39;11.63;;;4.35;;
62268;SDS011;56517;51.634;5.566;2022-10-16T09:14:58;9.15;;;4.68;;
62268;SDS011;56517;51.634;5.566;2022-10-16T09:25:32;10.80;;;4.18;;
62268;SDS011;56517;51.634;5.566;2022-10-16T09:30:39;9.85;;;3.95;;
62268;SDS011;56517;51.634;5.566;2022-10-16T09:35:42;9.65;;;4.20;;
62268;SDS011;56517;51.634;5.566;2022-10-16T09:40:52;4.93;;;3.78;;
62268;SDS011;56517;51.634;5.566;2022-10-16T09:51:38;13.57;;;5.20;;
62268;SDS011;56517;51.634;5.566;2022-10-16T09:57:03;15.10;;;5.07;;
62268;SDS011;56517;51.634;5.566;2022-10-16T10:02:14;6.47;;;4.35;;
62268;SDS011;56517;51.634;5.566;2022-10-16T10:13:14;10.95;;;4.70;;
62268;SDS011;56517;51.634;5.566;2022-10-16T10:18:40;13.75;;;4.20;;
62268;SDS011;56517;51.634;5.566;2022-10-16T10:23:57;16.25;;;5.15;;
62268;SDS011;56517;51.634;5.566;2022-10-16T10:29:25;13.23;;;5.00;;
62268;SDS011;56517;51.634;5.566;2022-10-16T10:34:45;10.60;;;4.10;;
62268;SDS011;56517;51.634;5.566;2022-10-16T10:39:58;15.00;;;4.47;;
62268;SDS011;56517;51.634;5.566;2022-10-16T10:45:26;8.40;;;4.10;;
62268;SDS011;56517;51.634;5.566;2022-10-16T10:56:15;12.93;;;4.50;;
62268;SDS011;56517;51.634;5.566;2022-10-16T11:01:29;13.55;;;5.30;;
62268;SDS011;56517;51.634;5.566;2022-10-16T11:06:33;7.13;;;3.30;;
62268;SDS011;56517;51.634;5.566;2022-10-16T11:11:36;14.00;;;4.75;;
62268;SDS011;56517;51.634;5.566;2022-10-16T11:16:55;18.92;;;5.93;;
62268;SDS011;56517;51.634;5.566;2022-10-16T11:22:02;10.47;;;3.43;;
62268;SDS011;56517;51.634;5.566;2022-10-16T11:43:35;18.40;;;5.07;;
62268;SDS011;56517;51.634;5.566;2022-10-16T11:48:58;13.18;;;4.10;;
62268;SDS011;56517;51.634;5.566;2022-10-16T11:54:14;17.88;;;6.15;;
62268;SDS011;56517;51.634;5.566;2022-10-16T12:04:48;9.10;;;3.85;;
62268;SDS011;56517;51.634;5.566;2022-10-16T12:09:57;19.30;;;4.88;;
62268;SDS011;56517;51.634;5.566;2022-10-16T12:20:36;17.23;;;5.53;;
62268;SDS011;56517;51.634;5.566;2022-10-16T12:25:42;13.57;;;4.28;;
62268;SDS011;56517;51.634;5.566;2022-10-16T12:30:57;13.90;;;5.17;;
62268;SDS011;56517;51.634;5.566;2022-10-16T12:36:11;13.07;;;4.43;;
62268;SDS011;56517;51.634;5.566;2022-10-16T12:46:39;15.02;;;4.85;;
62268;SDS011;56517;51.634;5.566;2022-10-16T12:57:01;14.45;;;4.53;;
62268;SDS011;56517;51.634;5.566;2022-10-16T13:07:34;14.23;;;4.63;;
62268;SDS011;56517;51.634;5.566;2022-10-16T13:12:45;8.55;;;4.03;;
62268;SDS011;56517;51.634;5.566;2022-10-16T13:17:56;8.73;;;4.03;;
62268;SDS011;56517;51.634;5.566;2022-10-16T13:23:13;6.88;;;3.15;;
62268;SDS011;56517;51.634;5.566;2022-10-16T13:28:21;10.82;;;3.60;;
62268;SDS011;56517;51.634;5.566;2022-10-16T13:39:10;7.63;;;3.15;;
62268;SDS011;56517;51.634;5.566;2022-10-16T14:01:20;12.07;;;4.25;;
62268;SDS011;56517;51.634;5.566;2022-10-16T14:29:37;10.02;;;3.88;;
62268;SDS011;56517;51.634;5.566;2022-10-16T14:34:57;12.82;;;3.63;;
62268;SDS011;56517;51.634;5.566;2022-10-16T14:40:18;11.18;;;4.20;;
62268;SDS011;56517;51.634;5.566;2022-10-16T14:45:37;12.10;;;4.35;;
62268;SDS011;56517;51.634;5.566;2022-10-16T14:51:12;9.00;;;3.65;;
62268;SDS011;56517;51.634;5.566;2022-10-16T14:56:31;8.40;;;3.72;;
62268;SDS011;56517;51.634;5.566;2022-10-16T15:07:24;12.23;;;3.88;;
62268;SDS011;56517;51.634;5.566;2022-10-16T15:17:52;10.85;;;3.80;;
62268;SDS011;56517;51.634;5.566;2022-10-16T15:23:17;12.38;;;3.95;;
62268;SDS011;56517;51.634;5.566;2022-10-16T15:28:47;9.38;;;3.63;;
62268;SDS011;56517;51.634;5.566;2022-10-16T15:34:04;8.05;;;3.13;;
62268;SDS011;56517;51.634;5.566;2022-10-16T15:49:52;13.10;;;4.60;;
62268;SDS011;56517;51.634;5.566;2022-10-16T15:54:55;11.88;;;4.05;;
62268;SDS011;56517;51.634;5.566;2022-10-16T16:00:09;9.80;;;4.00;;
62268;SDS011;56517;51.634;5.566;2022-10-16T16:15:56;12.32;;;4.38;;
62268;SDS011;56517;51.634;5.566;2022-10-16T16:21:05;7.72;;;3.70;;
62268;SDS011;56517;51.634;5.566;2022-10-16T16:26:24;11.35;;;4.32;;
62268;SDS011;56517;51.634;5.566;2022-10-16T16:31:28;16.10;;;5.05;;
62268;SDS011;56517;51.634;5.566;2022-10-16T16:36:39;11.90;;;4.40;;
62268;SDS011;56517;51.634;5.566;2022-10-16T16:41:42;12.90;;;5.20;;
62268;SDS011;56517;51.634;5.566;2022-10-16T16:46:52;14.10;;;5.18;;
62268;SDS011;56517;51.634;5.566;2022-10-16T16:51:55;12.57;;;5.18;;
62268;SDS011;56517;51.634;5.566;2022-10-16T16:56:58;16.98;;;6.10;;
62268;SDS011;56517;51.634;5.566;2022-10-16T17:02:08;15.95;;;6.07;;
62268;SDS011;56517;51.634;5.566;2022-10-16T17:07:18;9.02;;;5.20;;
62268;SDS011;56517;51.634;5.566;2022-10-16T17:12:19;7.60;;;4.70;;
62268;SDS011;56517;51.634;5.566;2022-10-16T17:17:27;10.10;;;5.93;;
62268;SDS011;56517;51.634;5.566;2022-10-16T17:22:31;18.08;;;6.43;;
62268;SDS011;56517;51.634;5.566;2022-10-16T17:27:34;9.90;;;6.13;;
62268;SDS011;56517;51.634;5.566;2022-10-16T17:37:47;13.82;;;6.53;;
62268;SDS011;56517;51.634;5.566;2022-10-16T17:42:55;18.33;;;7.55;;
62268;SDS011;56517;51.634;5.566;2022-10-16T17:48:04;15.23;;;7.78;;
62268;SDS011;56517;51.634;5.566;2022-10-16T17:53:11;16.13;;;7.97;;
62268;SDS011;56517;51.634;5.566;2022-10-16T17:58:20;21.70;;;7.90;;
62268;SDS011;56517;51.634;5.566;2022-10-16T18:03:40;12.13;;;8.13;;
62268;SDS011;56517;51.634;5.566;2022-10-16T18:08:45;13.07;;;8.68;;
62268;SDS011;56517;51.634;5.566;2022-10-16T18:14:14;12.00;;;8.52;;
62268;SDS011;56517;51.634;5.566;2022-10-16T18:19:23;13.45;;;8.50;;
62268;SDS011;56517;51.634;5.566;2022-10-16T18:24:33;12.15;;;7.57;;
62268;SDS011;56517;51.634;5.566;2022-10-16T18:29:48;13.63;;;7.47;;
62268;SDS011;56517;51.634;5.566;2022-10-16T18:34:53;11.98;;;7.18;;
62268;SDS011;56517;51.634;5.566;2022-10-16T18:40:06;14.80;;;7.97;;
62268;SDS011;56517;51.634;5.566;2022-10-16T18:45:07;14.57;;;7.80;;
62268;SDS011;56517;51.634;5.566;2022-10-16T18:50:22;15.80;;;8.40;;
62268;SDS011;56517;51.634;5.566;2022-10-16T18:55:40;13.05;;;7.63;;
62268;SDS011;56517;51.634;5.566;2022-10-16T19:06:33;9.00;;;7.25;;
62268;SDS011;56517;51.634;5.566;2022-10-16T19:11:35;14.48;;;8.70;;
62268;SDS011;56517;51.634;5.566;2022-10-16T19:16:36;14.60;;;10.27;;
62268;SDS011;56517;51.634;5.566;2022-10-16T19:21:37;17.67;;;10.93;;
62268;SDS011;56517;51.634;5.566;2022-10-16T19:26:39;15.35;;;11.07;;
62268;SDS011;56517;51.634;5.566;2022-10-16T19:31:39;18.65;;;10.73;;
62268;SDS011;56517;51.634;5.566;2022-10-16T19:36:40;13.93;;;8.85;;
62268;SDS011;56517;51.634;5.566;2022-10-16T19:41:42;14.25;;;8.70;;
62268;SDS011;56517;51.634;5.566;2022-10-16T19:46:43;11.13;;;7.93;;
62268;SDS011;56517;51.634;5.566;2022-10-16T19:51:45;12.55;;;6.78;;
62268;SDS011;56517;51.634;5.566;2022-10-16T19:56:47;10.10;;;7.00;;
62268;SDS011;56517;51.634;5.566;2022-10-16T20:01:47;11.68;;;8.00;;
62268;SDS011;56517;51.634;5.566;2022-10-16T20:06:48;14.32;;;9.02;;
62268;SDS011;56517;51.634;5.566;2022-10-16T20:11:50;12.30;;;8.13;;
62268;SDS011;56517;51.634;5.566;2022-10-16T20:16:50;11.20;;;8.52;;
62268;SDS011;56517;51.634;5.566;2022-10-16T20:21:51;13.65;;;8.38;;
62268;SDS011;56517;51.634;5.566;2022-10-16T20:26:53;11.45;;;8.52;;
62268;SDS011;56517;51.634;5.566;2022-10-16T20:31:53;10.57;;;8.00;;
62268;SDS011;56517;51.634;5.566;2022-10-16T20:36:54;17.42;;;9.00;;
62268;SDS011;56517;51.634;5.566;2022-10-16T20:41:56;17.23;;;9.43;;
62268;SDS011;56517;51.634;5.566;2022-10-16T20:46:56;14.95;;;8.68;;
62268;SDS011;56517;51.634;5.566;2022-10-16T20:51:57;14.10;;;8.52;;
62268;SDS011;56517;51.634;5.566;2022-10-16T20:56:59;10.65;;;8.20;;
62268;SDS011;56517;51.634;5.566;2022-10-16T21:01:59;18.02;;;7.95;;
62268;SDS011;56517;51.634;5.566;2022-10-16T21:07:00;12.52;;;8.80;;
62268;SDS011;56517;51.634;5.566;2022-10-16T21:12:02;13.07;;;8.90;;
62268;SDS011;56517;51.634;5.566;2022-10-16T21:17:02;15.32;;;7.90;;
62268;SDS011;56517;51.634;5.566;2022-10-16T21:22:03;10.30;;;7.72;;
62268;SDS011;56517;51.634;5.566;2022-10-16T21:27:05;11.10;;;7.95;;
62268;SDS011;56517;51.634;5.566;2022-10-16T21:32:06;11.38;;;7.57;;
62268;SDS011;56517;51.634;5.566;2022-10-16T21:37:06;12.75;;;7.88;;
62268;SDS011;56517;51.634;5.566;2022-10-16T21:42:08;13.52;;;8.23;;
62268;SDS011;56517;51.634;5.566;2022-10-16T21:47:09;13.32;;;8.20;;
62268;SDS011;56517;51.634;5.566;2022-10-16T21:52:09;14.48;;;7.88;;
62268;SDS011;56517;51.634;5.566;2022-10-16T21:57:11;12.43;;;7.93;;
62268;SDS011;56517;51.634;5.566;2022-10-16T22:02:12;10.88;;;7.80;;
62268;SDS011;56517;51.634;5.566;2022-10-16T22:07:12;12.40;;;8.85;;
62268;SDS011;56517;51.634;5.566;2022-10-16T22:12:14;13.35;;;9.50;;
62268;SDS011;56517;51.634;5.566;2022-10-16T22:17:15;10.88;;;8.05;;
62268;SDS011;56517;51.634;5.566;2022-10-16T22:22:15;11.55;;;7.53;;
62268;SDS011;56517;51.634;5.566;2022-10-16T22:27:17;14.68;;;8.13;;
62268;SDS011;56517;51.634;5.566;2022-10-16T22:32:18;17.45;;;8.90;;
62268;SDS011;56517;51.634;5.566;2022-10-16T22:37:18;14.07;;;8.60;;
62268;SDS011;56517;51.634;5.566;2022-10-16T22:42:20;16.80;;;9.02;;
62268;SDS011;56517;51.634;5.566;2022-10-16T22:47:21;17.17;;;9.50;;
62268;SDS011;56517;51.634;5.566;2022-10-16T22:52:21;12.80;;;8.43;;
62268;SDS011;56517;51.634;5.566;2022-10-16T22:57:23;14.15;;;9.23;;
62268;SDS011;56517;51.634;5.566;2022-10-16T23:02:24;11.07;;;8.55;;
62268;SDS011;56517;51.634;5.566;2022-10-16T23:07:24;12.82;;;8.68;;
62268;SDS011;56517;51.634;5.566;2022-10-16T23:12:26;13.80;;;8.85;;
62268;SDS011;56517;51.634;5.566;2022-10-16T23:17:27;11.45;;;8.80;;
62268;SDS011;56517;51.634;5.566;2022-10-16T23:22:27;10.25;;;9.05;;
62268;SDS011;56517;51.634;5.566;2022-10-16T23:27:29;12.05;;;8.50;;
62268;SDS011;56517;51.634;5.566;2022-10-16T23:32:30;10.93;;;8.95;;
62268;SDS011;56517;51.634;5.566;2022-10-16T23:37:30;16.83;;;9.30;;
62268;SDS011;56517;51.634;5.566;2022-10-16T23:42:32;12.88;;;8.60;;
62268;SDS011;56517;51.634;5.566;2022-10-16T23:47:33;10.90;;;8.23;;
62268;SDS011;56517;51.634;5.566;2022-10-16T23:52:33;16.30;;;9.25;;
62268;SDS011;56517;51.634;5.566;2022-10-16T23:57:35;9.70;;;8.18;;
